EST,Max TemperatureF,Mean TemperatureF,Min TemperatureF,Max Dew PointF,MeanDew PointF,Min DewpointF,Max Humidity, Mean Humidity, Min Humidity, Max Sea Level PressureIn, Mean Sea Level PressureIn, Min Sea Level PressureIn, Max VisibilityMiles, Mean VisibilityMiles, Min VisibilityMiles, Max Wind SpeedMPH, Mean Wind SpeedMPH, Max Gust SpeedMPH,PrecipitationIn, CloudCover, Events, WindDirDegrees
2011-11-1,62,58,54,57,50,42,93,75,57,30.30,30.14,30.04,10,9,1,20,11,35,0.09,5,Rain,358
2011-11-2,63,59,55,48,45,42,77,66,55,30.37,30.32,30.28,10,10,10,13,7,20,0.00,0,,29
2011-11-3,69,60,50,53,51,47,93,75,56,30.26,30.13,29.95,10,10,6,8,4,12,0.00,0,,56
2011-11-4,63,57,50,59,55,49,93,83,72,29.93,29.78,29.68,10,6,1,28,14,47,1.33,7,Rain,40
2011-11-5,59,58,56,49,45,43,72,65,57,30.31,30.14,29.90,10,10,10,25,16,43,0.00,8,,38
2011-11-6,62,60,57,55,51,49,93,81,69,30.42,30.37,30.30,10,10,10,15,8,26,0.01,8,Rain,33
2011-11-7,68,61,54,56,54,51,100,79,58,30.37,30.32,30.27,10,10,10,14,7,22,T,2,,37
2011-11-8,63,59,54,58,55,52,93,86,78,30.26,30.21,30.15,10,10,9,14,7,23,0.00,0,,27
2011-11-9,68,63,58,63,60,58,100,88,76,30.14,30.02,29.91,10,9,2,12,7,17,0.08,5,Rain,29
2011-11-10,69,61,53,61,59,48,100,88,76,29.89,29.79,29.71,10,10,10,15,6,28,T,5,,7
2011-11-11,54,51,48,45,32,26,83,59,35,30.22,30.01,29.79,10,10,10,20,11,30,0.00,1,,317
2011-11-12,60,49,38,36,30,27,76,55,33,30.36,30.30,30.23,10,10,10,12,6,18,0.00,0,,259
2011-11-13,,,,,,,,,,,,,,,,,,,,,,
2011-11-14,69,66,62,,,,,,,,,,,,,15,9,22,0.00,,,
2011-11-15,70,67,63,64,63,62,93,90,87,30.04,30.02,30.01,10,9,6,17,10,24,0.04,7,,211
2011-11-16,69,66,63,68,65,63,100,95,90,30.02,29.95,29.86,8,3,0,18,10,26,1.69,7,Fog-Rain,211
2011-11-17,68,56,44,67,58,36,100,85,70,30.25,29.86,29.75,10,6,1,18,10,31,1.93,7,Rain,286
2011-11-18,50,47,43,40,32,26,76,63,49,30.49,30.43,30.27,10,10,10,14,7,25,0.00,0,,14
2011-11-19,70,59,48,53,49,41,96,74,52,30.46,30.42,30.37,10,10,10,9,5,14,0.00,0,,64
2011-11-20,71,61,50,63,58,49,97,85,73,30.37,30.32,30.26,10,10,4,10,5,14,0.00,2,,186
2011-11-21,69,63,56,61,59,57,100,87,73,30.25,30.21,30.16,10,8,4,16,6,23,0.00,3,,270
2011-11-22,71,64,56,64,60,55,100,88,76,30.25,30.17,30.04,10,6,1,10,5,14,0.00,1,,60
2011-11-23,69,60,51,66,62,41,93,75,57,30.01,29.82,29.69,10,5,1,26,14,37,0.41,6,Rain,246
2011-11-24,55,48,41,43,40,35,89,70,50,30.35,30.21,30.00,10,10,10,20,8,36,0.00,4,,11
2011-11-25,63,52,40,49,43,38,92,69,46,30.39,30.33,30.28,10,10,10,9,5,13,0.00,0,,278
2011-11-26,66,56,46,49,46,42,93,68,42,30.37,30.32,30.29,10,10,10,9,6,13,0.00,0,,255
2011-11-27,70,60,50,57,52,47,93,72,51,30.30,30.24,30.17,10,10,10,17,7,23,0.00,3,,165
2011-11-28,74,70,65,65,61,57,81,70,59,30.15,30.09,29.97,10,9,2,22,13,30,0.06,5,Rain,160
2011-11-29,70,60,50,62,52,42,100,83,66,29.95,29.88,29.83,10,6,2,28,12,36,0.44,7,Rain,266
2011-11-30,52,49,45,43,38,34,77,65,52,30.06,29.93,29.85,10,10,10,21,11,31,0.00,2,,281